Time;durP1;ratioP1;P1;durP2;ratioP2;P2;SDS_P1;SDS_P2;PMS_P1;PMS_P2;Temp;Humidity;BMP_temperature;BMP_pressure;BME280_temperature;BME280_humidity;BME280_pressure;Samples;Min_cycle;Max_cycle;Signal;HPM_P1;HPM_P2
2022/09/27 00:00:41;;;;;;;4.10;0.50;;;9.80;99.90;;;;;;5112481;28;20043;-77
2022/09/27 00:03:08;;;;;;;5.65;0.60;;;9.80;99.90;;;;;;5112593;28;20441;-80
2022/09/27 00:05:34;;;;;;;6.97;0.50;;;9.80;99.90;;;;;;5112050;28;20051;-79
2022/09/27 00:08:00;;;;;;;3.97;0.45;;;9.80;99.90;;;;;;5112009;28;20410;-89
2022/09/27 00:10:25;;;;;;;6.22;0.50;;;9.80;99.90;;;;;;5111750;28;20047;-78
2022/09/27 00:12:51;;;;;;;6.75;0.60;;;9.80;99.90;;;;;;5111901;28;20039;-85
2022/09/27 00:15:17;;;;;;;6.43;0.90;;;9.80;99.90;;;;;;5111621;28;20427;-84
2022/09/27 00:17:43;;;;;;;4.88;0.50;;;9.80;99.90;;;;;;5112099;28;20405;-75
2022/09/27 00:20:09;;;;;;;8.50;1.08;;;9.80;99.90;;;;;;5111926;28;20481;-87
2022/09/27 00:22:35;;;;;;;9.05;1.02;;;9.80;99.90;;;;;;5111657;28;20099;-77
2022/09/27 00:25:04;;;;;;;4.80;0.73;;;9.80;99.90;;;;;;5111780;28;20055;-85
2022/09/27 00:27:30;;;;;;;5.88;0.52;;;9.70;99.90;;;;;;5111887;28;20036;-79
2022/09/27 00:29:55;;;;;;;5.63;0.63;;;9.70;99.90;;;;;;5106700;28;20047;-82
2022/09/27 00:32:21;;;;;;;2.58;0.60;;;9.70;99.90;;;;;;5112018;28;20040;-86
2022/09/27 00:34:47;;;;;;;8.80;0.80;;;9.70;99.90;;;;;;5111745;28;20054;-85
2022/09/27 00:37:12;;;;;;;5.50;0.90;;;9.60;99.90;;;;;;5111387;28;20040;-80
2022/09/27 00:39:38;;;;;;;5.38;0.50;;;9.70;99.90;;;;;;5111648;28;20047;-81
2022/09/27 00:42:04;;;;;;;3.28;0.40;;;9.80;99.90;;;;;;5110371;28;20466;-79
2022/09/27 00:44:32;;;;;;;6.15;0.70;;;9.60;99.90;;;;;;5111473;28;20070;-79
2022/09/27 00:47:26;;;;;;;6.43;0.75;;;9.60;99.90;;;;;;5111315;28;20047;-78
2022/09/27 00:50:33;;;;;;;7.07;0.70;;;9.60;99.90;;;;;;5111411;28;20047;-78
2022/09/27 00:53:30;;;;;;;5.43;0.88;;;9.60;99.90;;;;;;5048132;28;20049;-76
2022/09/27 00:56:08;;;;;;;4.72;0.57;;;9.60;99.90;;;;;;5048257;28;20044;-79
2022/09/27 00:58:39;;;;;;;6.15;0.65;;;9.60;99.90;;;;;;5047892;28;20436;-79
2022/09/27 01:01:12;;;;;;;4.30;0.60;;;9.50;99.90;;;;;;5031277;28;20077;-83
2022/09/27 01:03:55;;;;;;;2.42;0.68;;;9.50;99.90;;;;;;5047910;28;20577;-78
2022/09/27 01:06:22;;;;;;;4.13;0.75;;;9.50;99.90;;;;;;5047740;28;20132;-78
2022/09/27 01:08:48;;;;;;;12.15;0.63;;;9.50;99.90;;;;;;5047498;28;20538;-78
2022/09/27 01:11:47;;;;;;;1.83;0.50;;;9.50;99.90;;;;;;5031334;28;20060;-77
2022/09/27 01:14:28;;;;;;;5.45;0.90;;;9.50;99.90;;;;;;5048288;28;20052;-78
2022/09/27 01:17:00;;;;;;;4.50;0.60;;;9.40;99.90;;;;;;5030826;28;20071;-79
2022/09/27 01:19:44;;;;;;;8.63;0.85;;;9.50;99.90;;;;;;5047432;28;20502;-84
2022/09/27 01:22:31;;;;;;;5.88;0.88;;;10.00;99.90;;;;;;5046629;28;20155;-79
2022/09/27 01:25:15;;;;;;;8.02;0.57;;;9.50;99.90;;;;;;5109821;28;20184;-78
2022/09/27 01:27:59;;;;;;;5.80;0.75;;;9.50;99.90;;;;;;5143567;27;20138;-82
2022/09/27 01:30:42;;;;;;;5.68;0.30;;;9.60;99.90;;;;;;5129644;27;20051;-82
2022/09/27 01:33:22;;;;;;;4.18;0.45;;;9.60;99.90;;;;;;5090167;28;20043;-82
2022/09/27 01:36:06;;;;;;;3.60;0.30;;;9.50;99.90;;;;;;5090450;28;20131;-78
2022/09/27 01:39:04;;;;;;;3.20;0.40;;;9.50;99.90;;;;;;5094371;28;20092;-80
2022/09/27 01:41:57;;;;;;;2.03;0.52;;;9.60;99.90;;;;;;5110771;28;20050;-77
2022/09/27 01:44:27;;;;;;;1.98;0.43;;;9.50;99.90;;;;;;5110304;28;20040;-82
2022/09/27 01:47:11;;;;;;;9.32;0.60;;;9.50;99.90;;;;;;5110158;28;20048;-80
2022/09/27 01:50:06;;;;;;;3.90;0.68;;;9.50;99.90;;;;;;5110663;28;20125;-77
2022/09/27 01:52:53;;;;;;;7.07;1.05;;;9.50;99.90;;;;;;5110351;28;20048;-77
2022/09/27 01:55:23;;;;;;;2.58;0.50;;;9.80;99.90;;;;;;5109418;28;20058;-79
2022/09/27 01:57:56;;;;;;;6.15;0.60;;;9.50;99.90;;;;;;5110163;28;20088;-79
2022/09/27 02:00:22;;;;;;;10.32;1.00;;;9.50;99.90;;;;;;5108037;28;20581;-85
2022/09/27 02:02:51;;;;;;;6.32;0.68;;;9.50;99.90;;;;;;5109019;28;20054;-77
2022/09/27 02:05:19;;;;;;;3.33;0.75;;;9.50;99.90;;;;;;5110393;28;20401;-76
2022/09/27 02:07:55;;;;;;;6.55;0.50;;;9.50;99.90;;;;;;5109867;28;20040;-82
2022/09/27 02:10:24;;;;;;;6.07;0.75;;;9.50;99.90;;;;;;5109008;28;20054;-79
2022/09/27 02:13:14;;;;;;;6.38;0.70;;;9.50;99.90;;;;;;5110134;28;20050;-84
2022/09/27 02:15:57;;;;;;;4.20;0.95;;;9.50;99.90;;;;;;5110366;28;20066;-86
2022/09/27 02:18:32;;;;;;;5.40;0.65;;;9.50;99.90;;;;;;5108344;28;20526;-81
2022/09/27 02:21:00;;;;;;;3.60;0.57;;;9.40;99.90;;;;;;5109992;28;20052;-78
2022/09/27 02:23:32;;;;;;;8.07;0.88;;;9.50;99.90;;;;;;5109541;28;20040;-79
2022/09/27 02:26:04;;;;;;;7.07;0.55;;;9.50;99.90;;;;;;5108628;28;20051;-77
2022/09/27 02:28:42;;;;;;;12.98;0.70;;;9.40;99.90;;;;;;5109401;28;20052;-77
2022/09/27 02:31:08;;;;;;;8.15;0.80;;;9.40;99.90;;;;;;5110179;28;20055;-81
2022/09/27 02:33:39;;;;;;;7.97;0.68;;;9.40;99.90;;;;;;5108992;28;20063;-84
2022/09/27 02:36:05;;;;;;;6.40;0.68;;;9.40;99.90;;;;;;5113723;28;20043;-76
2022/09/27 02:38:31;;;;;;;4.35;0.68;;;9.40;99.90;;;;;;5113894;28;20044;-86
2022/09/27 02:40:57;;;;;;;4.25;0.80;;;9.40;99.90;;;;;;5113701;28;20134;-77
2022/09/27 02:43:26;;;;;;;3.80;0.68;;;9.40;99.90;;;;;;5147104;27;20170;-84
2022/09/27 02:46:13;;;;;;;5.68;0.70;;;9.40;99.90;;;;;;5113632;28;20115;-78
2022/09/27 02:48:52;;;;;;;6.80;0.50;;;9.40;99.90;;;;;;5112741;28;20055;-79
2022/09/27 02:51:26;;;;;;;5.60;0.73;;;9.40;99.90;;;;;;5130399;27;20495;-77
2022/09/27 02:53:58;;;;;;;9.13;2.15;;;9.40;99.90;;;;;;5093153;28;20044;-79
2022/09/27 02:56:38;;;;;;;4.88;0.57;;;9.40;99.90;;;;;;5093502;28;20048;-75
2022/09/27 02:59:49;;;;;;;7.22;0.63;;;9.40;99.90;;;;;;5093357;28;20036;-77
2022/09/27 03:02:49;;;;;;;4.43;0.50;;;9.30;99.90;;;;;;5087668;28;20060;-81
2022/09/27 03:05:36;;;;;;;2.92;0.40;;;9.30;99.90;;;;;;5030133;28;20049;-81
2022/09/27 03:08:03;;;;;;;9.77;1.10;;;9.30;99.90;;;;;;5030290;28;20053;-82
2022/09/27 03:10:29;;;;;;;1.42;0.40;;;9.20;99.90;;;;;;5042715;28;20402;-76
2022/09/27 03:12:57;;;;;;;3.50;0.60;;;9.20;99.90;;;;;;5033523;28;20053;-77
2022/09/27 03:15:23;;;;;;;6.47;0.80;;;9.20;99.90;;;;;;5049849;28;20239;-79
2022/09/27 03:17:49;;;;;;;5.05;0.50;;;9.10;99.90;;;;;;5032484;28;20057;-75
2022/09/27 03:20:14;;;;;;;4.25;0.60;;;9.20;99.90;;;;;;5030099;28;20049;-77
2022/09/27 03:22:41;;;;;;;3.83;0.47;;;9.20;99.90;;;;;;5040122;28;20138;-75
2022/09/27 03:25:07;;;;;;;3.28;0.70;;;9.10;99.90;;;;;;5048389;28;20063;-75
2022/09/27 03:27:32;;;;;;;2.83;0.70;;;9.10;99.90;;;;;;5016771;28;20079;-79
2022/09/27 03:29:58;;;;;;;4.00;0.50;;;9.10;99.90;;;;;;5029609;28;20516;-77
2022/09/27 03:32:25;;;;;;;6.90;0.50;;;9.10;99.90;;;;;;5031113;28;20081;-80
2022/09/27 03:34:50;;;;;;;6.05;0.50;;;9.10;99.90;;;;;;5013360;28;20053;-78
2022/09/27 03:37:16;;;;;;;3.70;0.50;;;9.10;99.90;;;;;;5044713;28;20384;-77
2022/09/27 03:39:42;;;;;;;3.88;0.57;;;9.10;99.90;;;;;;5089254;28;20042;-80
2022/09/27 03:42:07;;;;;;;5.57;0.65;;;9.10;99.90;;;;;;5091654;28;20069;-81
2022/09/27 03:44:33;;;;;;;6.85;0.70;;;9.10;99.90;;;;;;5112722;28;20055;-78
2022/09/27 03:46:59;;;;;;;6.10;0.95;;;9.10;99.90;;;;;;5110631;28;20043;-78
2022/09/27 03:49:25;;;;;;;6.88;0.93;;;9.10;99.90;;;;;;5112660;28;20367;-76
2022/09/27 03:51:50;;;;;;;3.88;0.70;;;9.10;99.90;;;;;;5112146;28;20048;-82
2022/09/27 03:54:16;;;;;;;3.63;0.60;;;9.10;99.90;;;;;;5112249;28;20049;-83
2022/09/27 03:56:42;;;;;;;10.40;0.80;;;9.10;99.90;;;;;;5112504;28;20055;-80
2022/09/27 03:59:07;;;;;;;5.18;0.68;;;9.10;99.90;;;;;;5112601;28;20043;-84
2022/09/27 04:01:36;;;;;;;5.47;0.55;;;9.30;99.90;;;;;;5109990;28;20375;-78
2022/09/27 04:04:02;;;;;;;6.00;0.60;;;9.10;99.90;;;;;;5112486;28;20126;-77
2022/09/27 04:06:28;;;;;;;3.90;0.50;;;9.10;99.90;;;;;;5112437;28;20111;-80
2022/09/27 04:08:53;;;;;;;2.97;0.93;;;9.10;99.90;;;;;;5110871;28;20101;-80
2022/09/27 04:11:20;;;;;;;4.78;0.60;;;9.10;99.90;;;;;;5111921;28;20043;-77
2022/09/27 04:13:48;;;;;;;2.65;0.57;;;9.10;99.90;;;;;;5112073;27;20402;-77
2022/09/27 04:16:14;;;;;;;2.30;0.40;;;9.40;99.90;;;;;;5110349;28;20054;-75
2022/09/27 04:18:40;;;;;;;3.42;0.35;;;9.00;99.90;;;;;;5112218;28;20082;-80
2022/09/27 04:21:05;;;;;;;3.95;0.32;;;9.10;99.90;;;;;;5111958;28;20063;-83
2022/09/27 04:23:32;;;;;;;2.80;0.50;;;9.30;99.90;;;;;;5111413;28;20054;-86
2022/09/27 04:25:58;;;;;;;5.80;0.50;;;9.00;99.90;;;;;;5111604;28;20055;-82
2022/09/27 04:28:24;;;;;;;2.28;0.30;;;9.00;99.90;;;;;;5111594;28;20054;-76
2022/09/27 04:30:49;;;;;;;5.15;0.95;;;9.00;99.90;;;;;;5111935;28;20055;-79
2022/09/27 04:33:15;;;;;;;2.53;0.30;;;9.00;99.90;;;;;;5111062;28;20609;-76
2022/09/27 04:38:26;;;;;;;1.70;0.20;;;9.00;99.90;;;;;;5111797;28;20535;-85
2022/09/27 04:40:52;;;;;;;4.43;0.40;;;9.00;99.90;;;;;;5110844;28;20065;-77
2022/09/27 04:43:18;;;;;;;2.78;0.40;;;9.00;99.90;;;;;;5111494;28;20048;-78
2022/09/27 04:45:43;;;;;;;3.33;0.30;;;9.00;99.90;;;;;;5092937;28;20036;-78
2022/09/27 04:48:09;;;;;;;3.80;0.40;;;9.00;99.90;;;;;;5110468;28;20497;-78
2022/09/27 04:50:35;;;;;;;3.75;0.40;;;9.10;99.90;;;;;;5111199;28;20078;-83
2022/09/27 04:53:01;;;;;;;5.80;0.80;;;9.00;99.90;;;;;;5092998;28;20047;-78
2022/09/27 04:55:27;;;;;;;3.22;0.50;;;9.00;99.90;;;;;;5111116;28;20047;-81
2022/09/27 04:57:53;;;;;;;5.32;0.63;;;9.00;99.90;;;;;;5111391;28;20113;-79
2022/09/27 05:00:19;;;;;;;3.45;0.60;;;9.00;99.90;;;;;;5111285;28;20059;-76
2022/09/27 05:02:47;;;;;;;6.88;0.80;;;9.00;99.90;;;;;;5092718;28;20543;-79
2022/09/27 05:05:13;;;;;;;8.82;1.02;;;9.10;99.90;;;;;;5111547;28;20044;-78
2022/09/27 05:07:39;;;;;;;4.03;0.60;;;9.00;99.90;;;;;;5111242;28;20051;-80
2022/09/27 05:10:06;;;;;;;5.05;0.60;;;9.00;99.90;;;;;;5110928;28;20039;-77
2022/09/27 05:12:32;;;;;;;3.92;0.63;;;9.00;99.90;;;;;;5110040;28;20043;-79
2022/09/27 05:14:57;;;;;;;6.85;0.75;;;9.00;99.90;;;;;;5092555;28;20051;-78
2022/09/27 05:17:23;;;;;;;5.85;0.70;;;9.00;99.90;;;;;;5110512;28;20044;-79
2022/09/27 05:19:49;;;;;;;5.22;0.77;;;9.00;99.90;;;;;;5110972;28;20437;-81
2022/09/27 05:22:15;;;;;;;5.53;0.95;;;9.00;99.90;;;;;;5110568;28;20410;-83
2022/09/27 05:24:41;;;;;;;2.53;0.43;;;9.00;99.90;;;;;;5110747;28;20036;-77
2022/09/27 05:27:09;;;;;;;7.95;0.77;;;9.00;99.90;;;;;;5110232;28;20040;-75
2022/09/27 05:29:35;;;;;;;5.60;0.90;;;9.00;99.90;;;;;;5092159;28;20063;-77
2022/09/27 05:32:01;;;;;;;5.03;0.60;;;9.00;99.90;;;;;;5110792;28;20055;-77
2022/09/27 05:34:26;;;;;;;6.07;0.60;;;9.00;99.90;;;;;;5110193;28;20500;-77
2022/09/27 05:36:52;;;;;;;2.88;0.60;;;9.00;99.90;;;;;;5110588;28;20055;-76
2022/09/27 05:39:18;;;;;;;5.38;0.50;;;8.90;99.90;;;;;;5092365;28;20422;-76
2022/09/27 05:41:44;;;;;;;4.70;0.45;;;8.90;99.90;;;;;;5110597;28;20460;-81
2022/09/27 05:44:12;;;;;;;3.60;0.50;;;9.00;99.90;;;;;;5091589;28;20179;-78
2022/09/27 05:46:38;;;;;;;2.90;0.60;;;8.90;99.90;;;;;;5109616;28;20044;-78
2022/09/27 05:49:05;;;;;;;4.57;0.60;;;9.00;99.90;;;;;;5110406;28;20044;-78
2022/09/27 05:51:31;;;;;;;2.83;0.50;;;8.90;99.90;;;;;;5090993;28;20055;-85
2022/09/27 05:53:56;;;;;;;4.93;0.60;;;8.90;99.90;;;;;;5110208;28;20075;-78
2022/09/27 05:56:23;;;;;;;5.10;0.57;;;8.90;99.90;;;;;;5110322;28;20132;-74
2022/09/27 05:58:49;;;;;;;7.55;0.95;;;8.90;99.90;;;;;;5109797;28;20127;-81
2022/09/27 06:01:15;;;;;;;3.88;0.65;;;9.00;99.90;;;;;;5110134;28;20118;-79
2022/09/27 06:03:41;;;;;;;2.95;0.50;;;9.00;99.90;;;;;;5110576;28;20089;-81
2022/09/27 06:06:09;;;;;;;4.38;0.75;;;8.90;99.90;;;;;;5110083;28;20036;-82
2022/09/27 06:08:36;;;;;;;6.55;0.88;;;9.00;99.90;;;;;;5092046;28;20130;-79
2022/09/27 06:11:07;;;;;;;4.38;0.70;;;8.90;99.90;;;;;;5114398;28;20043;-79
2022/09/27 06:13:38;;;;;;;4.20;0.90;;;8.90;99.90;;;;;;5113726;28;20088;-78
2022/09/27 06:16:05;;;;;;;2.95;0.70;;;9.00;99.90;;;;;;5114077;28;20051;-78
2022/09/27 06:18:30;;;;;;;7.15;1.00;;;9.00;99.90;;;;;;5114360;28;20044;-80
2022/09/27 06:20:59;;;;;;;4.03;0.82;;;9.00;99.90;;;;;;5114454;28;20058;-77
2022/09/27 06:23:25;;;;;;;7.18;1.10;;;9.00;99.90;;;;;;5114091;28;20040;-80
2022/09/27 06:25:52;;;;;;;7.60;0.80;;;9.00;99.90;;;;;;5113878;28;20126;-82
2022/09/27 06:28:17;;;;;;;6.00;0.75;;;9.00;99.90;;;;;;5096351;28;20040;-77
2022/09/27 06:30:46;;;;;;;6.63;0.80;;;9.10;99.90;;;;;;5113850;28;20047;-77
2022/09/27 06:33:13;;;;;;;4.75;0.80;;;9.10;99.90;;;;;;5114028;28;20162;-82
2022/09/27 06:35:44;;;;;;;9.07;0.90;;;9.30;99.90;;;;;;5112614;28;20139;-76
2022/09/27 06:38:14;;;;;;;7.13;0.80;;;9.10;99.90;;;;;;5114295;28;20111;-78
2022/09/27 06:40:44;;;;;;;8.50;0.90;;;9.20;99.90;;;;;;5113963;28;20048;-78
2022/09/27 06:43:11;;;;;;;6.60;0.77;;;9.20;99.90;;;;;;5114341;28;20031;-77
2022/09/27 06:45:38;;;;;;;6.63;0.88;;;9.30;99.90;;;;;;5113191;28;20417;-77
2022/09/27 06:48:05;;;;;;;7.68;1.00;;;9.30;99.90;;;;;;5113903;28;20044;-78
2022/09/27 06:50:33;;;;;;;6.32;1.10;;;9.30;99.90;;;;;;5113879;28;20047;-79
2022/09/27 06:53:00;;;;;;;1.92;0.52;;;9.50;99.90;;;;;;5113808;28;20449;-75
2022/09/27 06:55:25;;;;;;;4.35;0.60;;;9.30;99.90;;;;;;5112988;28;20530;-77
2022/09/27 07:00:41;;;;;;;9.32;1.30;;;9.40;99.90;;;;;;5111619;28;20443;-76
2022/09/27 07:03:10;;;;;;;4.38;1.38;;;9.40;99.90;;;;;;5113357;27;20089;-78
2022/09/27 07:05:37;;;;;;;6.32;1.00;;;9.40;99.90;;;;;;5112343;28;20047;-80
2022/09/27 07:08:03;;;;;;;4.72;0.85;;;9.40;99.90;;;;;;5113054;28;20058;-80
2022/09/27 07:10:33;;;;;;;5.38;1.00;;;9.40;99.90;;;;;;5113656;28;20054;-77
2022/09/27 07:13:06;;;;;;;4.82;0.95;;;9.60;99.90;;;;;;5113193;28;20043;-78
2022/09/27 07:15:35;;;;;;;5.25;0.75;;;9.40;99.90;;;;;;5113435;28;20058;-79
2022/09/27 07:18:01;;;;;;;3.30;0.73;;;9.40;99.90;;;;;;5113006;28;20083;-75
2022/09/27 07:20:28;;;;;;;3.17;0.80;;;9.60;99.90;;;;;;5113074;28;20085;-81
2022/09/27 07:22:54;;;;;;;6.13;0.80;;;9.70;99.90;;;;;;5112337;28;20046;-74
2022/09/27 07:25:20;;;;;;;5.88;0.80;;;9.80;99.90;;;;;;5112950;28;20043;-75
2022/09/27 07:27:45;;;;;;;5.95;0.70;;;10.00;99.90;;;;;;5113796;28;20039;-80
2022/09/27 07:30:12;;;;;;;2.13;0.35;;;10.00;99.90;;;;;;5112773;28;20393;-78
2022/09/27 07:32:38;;;;;;;3.75;0.30;;;10.10;99.90;;;;;;5112582;28;20636;-82
2022/09/27 07:35:05;;;;;;;1.13;0.20;;;10.10;99.90;;;;;;5112929;28;20122;-78
2022/09/27 07:37:32;;;;;;;3.25;0.30;;;10.20;99.90;;;;;;5112675;28;20039;-76
2022/09/27 07:39:59;;;;;;;1.48;0.60;;;10.30;99.90;;;;;;5112606;28;20054;-80
2022/09/27 07:42:25;;;;;;;3.20;0.55;;;10.40;99.90;;;;;;5094209;28;20051;-80
2022/09/27 07:44:50;;;;;;;2.72;0.70;;;10.50;99.90;;;;;;5112930;28;20047;-77
2022/09/27 07:47:18;;;;;;;3.30;0.68;;;10.50;99.90;;;;;;5112575;28;20084;-78
2022/09/27 07:49:43;;;;;;;4.90;0.60;;;10.60;99.90;;;;;;5112537;28;20063;-76
2022/09/27 07:52:09;;;;;;;4.55;0.70;;;10.70;99.90;;;;;;5112228;28;20043;-78
2022/09/27 07:54:35;;;;;;;3.33;0.40;;;10.80;99.90;;;;;;5113022;28;20050;-80
2022/09/27 07:57:02;;;;;;;3.65;0.40;;;10.80;99.90;;;;;;5112976;28;20051;-76
2022/09/27 07:59:28;;;;;;;5.57;0.70;;;10.90;99.90;;;;;;5112455;28;20539;-75
2022/09/27 08:01:54;;;;;;;2.97;0.60;;;10.90;99.90;;;;;;5112479;28;20047;-78
2022/09/27 08:04:20;;;;;;;3.63;0.68;;;10.90;99.90;;;;;;5112186;28;20067;-83
2022/09/27 08:06:46;;;;;;;4.38;0.77;;;11.00;99.90;;;;;;5112541;28;20054;-75
2022/09/27 08:09:12;;;;;;;3.75;0.40;;;11.10;99.90;;;;;;5112433;28;20047;-76
2022/09/27 08:11:37;;;;;;;1.05;0.30;;;11.00;99.90;;;;;;5111538;28;20047;-75
2022/09/27 08:14:04;;;;;;;2.30;0.40;;;11.00;99.90;;;;;;5111371;28;20113;-73
2022/09/27 08:16:32;;;;;;;0.30;0.17;;;11.00;99.90;;;;;;5112033;28;20043;-80
2022/09/27 08:18:58;;;;;;;1.48;0.32;;;11.00;99.90;;;;;;5110926;28;20434;-82
2022/09/27 08:21:24;;;;;;;1.98;0.30;;;11.10;99.90;;;;;;5112007;28;20054;-74
2022/09/27 08:23:49;;;;;;;1.23;0.30;;;11.10;99.90;;;;;;5111810;28;20065;-72
2022/09/27 08:26:15;;;;;;;2.53;0.30;;;11.30;99.90;;;;;;5094085;28;20047;-73
2022/09/27 08:28:41;;;;;;;1.23;0.30;;;11.40;99.90;;;;;;5111931;28;20059;-85
2022/09/27 08:31:06;;;;;;;2.20;0.40;;;11.90;99.90;;;;;;5111897;28;20181;-72
2022/09/27 08:33:32;;;;;;;1.40;0.38;;;11.80;99.90;;;;;;5110889;28;20043;-75
2022/09/27 08:35:58;;;;;;;1.48;0.30;;;11.80;99.90;;;;;;5111290;28;20089;-73
2022/09/27 08:38:23;;;;;;;2.70;0.47;;;11.70;99.90;;;;;;5111849;28;20497;-77
2022/09/27 08:40:55;;;;;;;6.15;0.50;;;11.70;99.90;;;;;;5111621;28;20039;-80
2022/09/27 08:43:39;;;;;;;3.72;0.57;;;11.80;99.90;;;;;;5111708;28;20044;-76
2022/09/27 08:46:43;;;;;;;3.72;0.35;;;11.70;99.90;;;;;;5111047;28;20055;-74
2022/09/27 08:49:16;;;;;;;6.43;0.95;;;11.80;99.90;;;;;;5073640;28;20563;-75
2022/09/27 08:51:44;;;;;;;2.67;0.50;;;12.00;99.90;;;;;;5102678;28;20428;-75
2022/09/27 08:54:14;;;;;;;2.50;0.40;;;11.90;99.90;;;;;;5111535;28;20489;-75
2022/09/27 08:56:40;;;;;;;3.88;0.52;;;12.00;99.90;;;;;;5111199;28;20088;-76
2022/09/27 08:59:21;;;;;;;9.63;0.45;;;12.10;99.90;;;;;;5111435;28;20433;-79
2022/09/27 09:01:49;;;;;;;2.60;0.40;;;12.30;99.90;;;;;;5110576;28;20100;-88
2022/09/27 09:04:31;;;;;;;5.53;0.52;;;12.20;99.90;;;;;;5110973;28;20044;-74
2022/09/27 09:07:18;;;;;;;4.78;0.70;;;12.20;99.90;;;;;;5110838;28;20060;-75
2022/09/27 09:12:45;;;;;;;8.15;0.50;;;12.30;99.90;;;;;;5110931;28;20047;-83
2022/09/27 09:13:22;;;;;;;4.07;0.60;;;12.40;99.90;;;;;;5110471;28;20058;-74
2022/09/27 09:15:54;;;;;;;5.82;0.52;;;12.40;99.90;;;;;;5110717;28;20468;-78
2022/09/27 09:18:38;;;;;;;3.60;0.63;;;12.50;99.90;;;;;;5110679;28;20047;-74
2022/09/27 09:21:27;;;;;;;3.15;0.60;;;12.60;99.90;;;;;;5110703;28;20470;-83
2022/09/27 09:24:34;;;;;;;4.07;0.68;;;12.60;99.90;;;;;;5110586;28;20036;-75
2022/09/27 09:27:08;;;;;;;3.47;0.68;;;12.60;99.90;;;;;;5092640;28;20055;-75
2022/09/27 09:30:00;;;;;;;4.15;0.52;;;12.70;99.90;;;;;;5110564;28;20074;-82
2022/09/27 09:32:50;;;;;;;3.75;0.77;;;12.70;99.90;;;;;;5110828;28;20444;-80
2022/09/27 09:35:24;;;;;;;2.05;0.30;;;12.50;99.90;;;;;;5110465;28;20130;-77
2022/09/27 09:38:04;;;;;;;2.33;0.30;;;12.10;99.90;;;;;;5110265;28;20043;-79
2022/09/27 09:41:02;;;;;;;5.47;0.50;;;11.90;99.90;;;;;;5110702;28;20090;-74
2022/09/27 09:43:42;;;;;;;1.80;0.32;;;11.60;99.90;;;;;;5006803;28;20058;-75
2022/09/27 09:46:16;;;;;;;2.80;0.28;;;11.40;99.90;;;;;;4990353;28;20064;-76
2022/09/27 09:48:49;;;;;;;2.17;0.40;;;11.30;99.90;;;;;;4991508;28;20053;-74
2022/09/27 09:51:23;;;;;;;1.13;0.22;;;11.20;99.90;;;;;;5007563;28;20375;-75
2022/09/27 09:53:57;;;;;;;2.90;0.40;;;11.20;99.90;;;;;;5006982;28;20057;-79
2022/09/27 09:56:28;;;;;;;2.08;0.43;;;11.20;99.90;;;;;;5007922;28;20471;-76
2022/09/27 09:59:01;;;;;;;2.40;0.30;;;11.20;99.90;;;;;;5008001;28;20054;-79
2022/09/27 10:01:34;;;;;;;3.13;0.40;;;11.40;99.90;;;;;;5008159;28;20050;-72
2022/09/27 10:04:00;;;;;;;2.55;0.40;;;11.20;99.90;;;;;;5007382;28;20046;-73
2022/09/27 10:06:27;;;;;;;2.30;0.30;;;11.30;99.90;;;;;;5007690;28;20137;-75
2022/09/27 10:08:54;;;;;;;2.80;0.40;;;11.30;99.90;;;;;;5007443;28;20046;-76
2022/09/27 10:11:24;;;;;;;3.08;0.40;;;11.40;99.90;;;;;;4991177;28;20060;-75
2022/09/27 10:13:50;;;;;;;2.08;0.32;;;11.50;99.90;;;;;;5007051;28;20056;-74
2022/09/27 10:16:18;;;;;;;2.50;0.32;;;11.70;99.90;;;;;;5008064;28;20401;-75
2022/09/27 10:18:46;;;;;;;1.02;0.28;;;12.00;99.90;;;;;;5008096;28;20100;-75
2022/09/27 10:21:18;;;;;;;2.35;0.30;;;11.90;99.90;;;;;;5102599;28;20455;-74
2022/09/27 10:24:07;;;;;;;2.92;0.30;;;12.00;99.90;;;;;;5110338;28;20053;-77
2022/09/27 10:26:34;;;;;;;0.88;0.30;;;12.10;99.90;;;;;;5089834;28;20038;-73
2022/09/27 10:29:29;;;;;;;2.38;0.40;;;12.20;99.90;;;;;;5089664;28;20082;-82
2022/09/27 10:31:55;;;;;;;3.25;0.52;;;12.30;99.90;;;;;;5089516;28;20083;-85
2022/09/27 10:34:40;;;;;;;5.07;0.50;;;12.40;99.90;;;;;;5090387;28;20115;-75
2022/09/27 10:37:22;;;;;;;3.20;0.70;;;12.50;99.90;;;;;;5089771;28;20040;-76
2022/09/27 10:39:52;;;;;;;5.85;0.70;;;12.60;99.90;;;;;;5088029;28;20048;-78
2022/09/27 10:42:32;;;;;;;1.30;0.30;;;12.50;99.90;;;;;;5089675;28;20137;-80
2022/09/27 10:45:31;;;;;;;0.60;0.20;;;12.30;99.90;;;;;;5090162;28;20079;-75
2022/09/27 10:47:59;;;;;;;1.55;0.22;;;12.20;99.90;;;;;;5089663;28;20070;-79
2022/09/27 10:50:27;;;;;;;1.65;0.20;;;12.10;99.90;;;;;;5093901;28;20760;-78
2022/09/27 10:53:19;;;;;;;0.93;0.30;;;12.00;99.90;;;;;;5109391;28;20482;-75
2022/09/27 10:55:50;;;;;;;1.00;0.20;;;11.90;99.90;;;;;;5093415;28;20402;-81
2022/09/27 10:58:37;;;;;;;1.17;0.28;;;12.00;99.90;;;;;;5113845;28;20047;-83
2022/09/27 11:01:11;;;;;;;0.73;0.25;;;11.70;99.90;;;;;;5113636;28;20043;-77
2022/09/27 11:03:50;;;;;;;1.63;0.30;;;11.50;99.90;;;;;;5113340;28;20075;-78
2022/09/27 11:06:31;;;;;;;1.30;0.38;;;11.40;99.90;;;;;;5113490;28;20498;-75
2022/09/27 11:09:14;;;;;;;1.63;0.32;;;11.40;99.90;;;;;;5094553;28;20487;-75
2022/09/27 11:11:39;;;;;;;0.57;0.20;;;11.40;99.90;;;;;;5085563;28;20055;-76
2022/09/27 11:14:23;;;;;;;2.05;0.20;;;11.70;99.90;;;;;;5113155;28;20046;-81
2022/09/27 11:17:12;;;;;;;1.65;0.30;;;11.50;99.90;;;;;;5105978;28;20836;-74
2022/09/27 11:19:51;;;;;;;0.88;0.40;;;11.70;99.90;;;;;;5093111;28;20052;-81
2022/09/27 11:22:19;;;;;;;0.50;0.28;;;12.00;99.90;;;;;;5112872;28;20082;-76
2022/09/27 11:25:16;;;;;;;2.53;0.40;;;12.20;99.90;;;;;;5113059;28;20039;-75
2022/09/27 11:27:44;;;;;;;1.95;0.32;;;12.50;99.90;;;;;;5094665;28;20126;-76
2022/09/27 11:30:11;;;;;;;1.23;0.30;;;12.80;99.90;;;;;;5112982;28;20051;-75
2022/09/27 11:32:54;;;;;;;0.17;0.10;;;13.00;99.90;;;;;;5093924;28;20055;-78
2022/09/27 11:35:47;;;;;;;2.15;0.30;;;13.10;99.90;;;;;;5103740;28;20051;-76
2022/09/27 11:38:32;;;;;;;2.80;0.35;;;13.40;99.90;;;;;;5113097;28;20047;-77
2022/09/27 11:41:16;;;;;;;4.53;0.40;;;13.40;99.90;;;;;;5112931;28;20043;-80
2022/09/27 11:44:10;;;;;;;2.58;0.20;;;13.40;99.90;;;;;;5112117;28;20048;-79
2022/09/27 11:46:37;;;;;;;2.22;0.30;;;13.50;99.90;;;;;;5112911;28;20436;-77
2022/09/27 11:49:28;;;;;;;2.03;0.40;;;13.50;99.90;;;;;;5111906;28;20159;-77
2022/09/27 11:52:08;;;;;;;4.13;0.60;;;13.20;99.90;;;;;;5112748;28;20051;-81
2022/09/27 11:54:45;;;;;;;2.05;0.40;;;13.10;99.90;;;;;;5111885;28;20062;-79
2022/09/27 11:57:53;;;;;;;2.78;0.52;;;12.90;99.90;;;;;;5112752;28;20047;-74
2022/09/27 12:00:23;;;;;;;3.38;0.57;;;12.90;99.90;;;;;;5009830;28;20819;-75
2022/09/27 12:02:52;;;;;;;1.83;0.60;;;13.20;99.90;;;;;;4993402;28;20070;-76
2022/09/27 12:05:20;;;;;;;5.50;0.60;;;13.20;99.90;;;;;;5009981;28;20054;-73
2022/09/27 12:08:16;;;;;;;3.67;0.50;;;13.20;99.90;;;;;;5008713;28;20038;-73
2022/09/27 12:10:47;;;;;;;3.33;0.60;;;13.20;99.90;;;;;;5009648;28;20084;-74
2022/09/27 12:13:18;;;;;;;1.85;0.35;;;13.00;99.90;;;;;;5007249;28;20160;-74
2022/09/27 12:15:46;;;;;;;1.70;0.38;;;12.90;99.90;;;;;;5016579;28;20057;-78
2022/09/27 12:18:37;;;;;;;2.40;0.30;;;12.80;99.90;;;;;;5022082;28;20046;-81
2022/09/27 12:21:06;;;;;;;3.97;0.40;;;12.90;99.90;;;;;;5009184;28;20049;-75
2022/09/27 12:23:42;;;;;;;4.22;0.45;;;12.80;99.90;;;;;;5009057;28;20493;-75
2022/09/27 12:26:36;;;;;;;2.83;0.20;;;12.70;99.90;;;;;;5009606;28;20050;-75
2022/09/27 12:29:30;;;;;;;3.40;0.30;;;12.50;99.90;;;;;;5018412;28;20053;-79
2022/09/27 12:32:21;;;;;;;4.55;0.50;;;12.50;99.90;;;;;;5029556;28;20091;-74
2022/09/27 12:35:12;;;;;;;3.15;0.47;;;12.50;99.90;;;;;;5015729;28;20068;-79
2022/09/27 12:37:58;;;;;;;3.65;0.47;;;12.60;99.90;;;;;;5092514;28;20056;-78
2022/09/27 12:40:31;;;;;;;1.55;0.28;;;12.70;99.90;;;;;;5091982;28;20060;-77
2022/09/27 12:43:26;;;;;;;2.40;0.40;;;12.90;99.90;;;;;;5092267;28;20036;-75
2022/09/27 12:46:30;;;;;;;1.00;0.30;;;12.90;99.90;;;;;;5028575;28;20053;-74
2022/09/27 12:49:06;;;;;;;3.33;0.30;;;13.10;99.90;;;;;;5029510;28;20053;-76
2022/09/27 12:51:38;;;;;;;2.42;0.32;;;13.30;99.90;;;;;;5029341;28;20068;-74
2022/09/27 12:54:12;;;;;;;5.63;0.68;;;13.50;99.90;;;;;;5029280;28;20053;-75
2022/09/27 12:57:05;;;;;;;1.50;0.25;;;13.50;99.90;;;;;;5028537;28;20806;-77
2022/09/27 12:59:50;;;;;;;1.15;0.57;;;13.50;99.90;;;;;;5028965;28;20045;-77
2022/09/27 13:02:41;;;;;;;3.05;0.55;;;13.30;99.90;;;;;;5027937;28;20501;-83
2022/09/27 13:05:30;;;;;;;0.93;0.25;;;13.20;99.90;;;;;;5011702;28;20049;-81
2022/09/27 13:08:19;;;;;;;1.80;0.30;;;13.10;99.90;;;;;;5019530;28;20045;-80
2022/09/27 13:10:47;;;;;;;2.85;0.68;;;13.00;99.90;;;;;;5028551;28;20123;-74
2022/09/27 13:13:17;;;;;;;4.65;0.40;;;12.90;99.90;;;;;;5028130;28;20053;-74
2022/09/27 13:15:44;;;;;;;0.63;0.20;;;12.80;99.90;;;;;;5027909;28;20053;-76
2022/09/27 13:18:51;;;;;;;2.97;0.45;;;12.70;99.90;;;;;;5044571;28;20080;-75
2022/09/27 13:21:44;;;;;;;6.78;0.60;;;12.50;99.90;;;;;;4974109;28;20510;-76
2022/09/27 13:24:36;;;;;;;1.42;0.30;;;11.50;99.90;;;;;;5048299;28;20095;-75
2022/09/27 13:27:22;;;;;;;3.47;0.30;;;11.00;99.90;;;;;;5028282;28;20080;-73
2022/09/27 13:29:48;;;;;;;1.85;0.20;;;10.80;99.90;;;;;;5037007;28;20053;-73